Time;durP1;ratioP1;P1;durP2;ratioP2;P2;SDS_P1;SDS_P2;PMS_P1;PMS_P2;Temp;Humidity;BMP_temperature;BMP_pressure;BME280_temperature;BME280_humidity;BME280_pressure;Samples;Min_cycle;Max_cycle;Signal;HPM_P1;HPM_P2
2023/01/01 03:47:05;;;;;;;130.68;47.60;;;3.00;99.90;;;;;;6141925;23;20052;-79
2023/01/01 03:49:36;;;;;;;141.15;50.90;;;3.10;99.90;;;;;;6119609;23;20022;-79
2023/01/01 03:52:19;;;;;;;145.63;51.15;;;3.60;99.90;;;;;;6143901;23;20021;-79
2023/01/01 03:55:02;;;;;;;133.40;52.53;;;3.30;99.90;;;;;;6122009;23;20029;-79
2023/01/01 03:57:58;;;;;;;140.68;52.60;;;2.70;99.90;;;;;;6123621;23;20052;-79
2023/01/01 04:00:39;;;;;;;151.23;54.25;;;2.80;99.90;;;;;;6146338;23;20018;-81
2023/01/01 04:03:19;;;;;;;140.13;50.05;;;2.90;99.90;;;;;;6146003;23;20396;-80
2023/01/01 04:05:47;;;;;;;142.70;53.05;;;2.20;99.90;;;;;;6120554;23;20524;-80
2023/01/01 04:08:15;;;;;;;141.98;49.58;;;2.80;99.90;;;;;;6124034;23;20022;-79
2023/01/01 04:10:58;;;;;;;145.00;52.60;;;2.90;99.90;;;;;;6122008;23;20014;-80
2023/01/01 04:13:26;;;;;;;141.35;50.67;;;2.80;99.90;;;;;;6121999;23;20036;-80
2023/01/01 04:15:53;;;;;;;144.77;49.40;;;2.50;99.90;;;;;;6171027;23;20032;-80
2023/01/01 04:18:20;;;;;;;148.70;50.28;;;2.20;99.90;;;;;;6123687;23;20045;-80
2023/01/01 04:20:53;;;;;;;153.85;51.17;;;1.90;99.90;;;;;;6124076;23;20014;-79
2023/01/01 04:23:21;;;;;;;160.65;54.63;;;2.70;99.90;;;;;;6124024;23;20038;-79
2023/01/01 04:25:51;;;;;;;160.00;52.13;;;2.70;99.90;;;;;;6123372;23;20072;-80
2023/01/01 04:28:19;;;;;;;145.60;51.70;;;2.70;99.90;;;;;;6124564;23;20027;-80
2023/01/01 04:30:47;;;;;;;151.73;52.25;;;2.60;99.90;;;;;;6124845;23;20013;-80
2023/01/01 04:33:14;;;;;;;138.77;47.17;;;2.70;99.90;;;;;;6124744;23;20017;-80
2023/01/01 04:35:42;;;;;;;146.80;50.58;;;2.70;99.90;;;;;;6148170;23;20024;-79
2023/01/01 04:38:13;;;;;;;131.55;46.88;;;2.60;99.90;;;;;;6146176;23;20024;-79
2023/01/01 04:40:41;;;;;;;148.05;49.95;;;1.60;99.90;;;;;;6119635;23;20009;-79
2023/01/01 04:43:09;;;;;;;151.60;51.15;;;2.70;99.90;;;;;;6119560;23;20520;-80
2023/01/01 04:45:36;;;;;;;156.13;48.83;;;2.70;99.90;;;;;;6145277;23;20018;-79
2023/01/01 04:48:04;;;;;;;159.95;52.63;;;2.00;99.90;;;;;;6148128;23;20014;-79
2023/01/01 04:50:32;;;;;;;164.88;52.15;;;2.00;99.90;;;;;;6124926;23;20020;-79
2023/01/01 04:52:59;;;;;;;147.23;49.97;;;2.60;99.90;;;;;;6123590;23;20052;-79
2023/01/01 04:55:27;;;;;;;151.07;50.97;;;2.90;99.90;;;;;;6123897;23;20021;-80
2023/01/01 04:57:55;;;;;;;152.60;52.78;;;2.60;99.90;;;;;;6123347;23;20113;-80
2023/01/01 05:00:23;;;;;;;148.35;51.47;;;2.60;99.90;;;;;;6121149;23;20021;-80
2023/01/01 05:02:50;;;;;;;156.52;52.33;;;2.60;99.90;;;;;;6121728;23;20049;-80
2023/01/01 05:05:18;;;;;;;155.55;51.20;;;2.60;99.90;;;;;;6122454;23;20017;-80
2023/01/01 05:07:46;;;;;;;139.48;49.45;;;2.20;99.90;;;;;;6121107;23;20023;-80
2023/01/01 05:10:13;;;;;;;148.70;49.53;;;2.50;99.90;;;;;;6121473;23;20041;-80
2023/01/01 05:12:41;;;;;;;148.50;50.25;;;2.60;99.90;;;;;;6120362;23;20040;-80
2023/01/01 05:15:11;;;;;;;147.68;49.25;;;2.60;99.90;;;;;;6118217;23;20022;-80
2023/01/01 05:17:39;;;;;;;145.73;48.75;;;2.50;99.90;;;;;;6120409;23;20409;-80
2023/01/01 05:20:07;;;;;;;117.95;41.83;;;2.50;99.90;;;;;;6118313;23;20033;-80
2023/01/01 05:22:35;;;;;;;120.45;41.75;;;2.50;99.90;;;;;;6143101;23;20025;-79
2023/01/01 05:25:03;;;;;;;118.63;41.45;;;1.10;99.90;;;;;;6121322;23;20051;-81
2023/01/01 05:27:30;;;;;;;104.03;37.30;;;2.50;99.90;;;;;;6142460;23;20017;-80
2023/01/01 05:29:58;;;;;;;87.68;32.80;;;2.50;99.90;;;;;;6117645;23;20041;-79
2023/01/01 05:32:28;;;;;;;95.05;32.75;;;2.60;99.90;;;;;;6120035;23;20022;-79
2023/01/01 05:34:59;;;;;;;90.47;32.17;;;1.80;99.90;;;;;;6120251;23;20449;-79
2023/01/01 05:37:26;;;;;;;85.75;31.38;;;2.50;99.90;;;;;;6146383;23;20096;-79
2023/01/01 05:39:54;;;;;;;89.68;32.97;;;2.50;99.90;;;;;;6121148;23;20104;-79
2023/01/01 05:42:21;;;;;;;93.43;33.35;;;2.50;99.90;;;;;;6169539;23;20021;-79
2023/01/01 05:44:49;;;;;;;83.72;31.88;;;2.70;99.90;;;;;;6119978;23;20473;-79
2023/01/01 05:47:17;;;;;;;86.28;29.52;;;2.40;99.90;;;;;;6119203;23;20025;-79
2023/01/01 05:49:45;;;;;;;78.05;28.17;;;2.50;99.90;;;;;;6117446;23;20037;-79
2023/01/01 05:52:13;;;;;;;88.05;31.00;;;2.50;99.90;;;;;;6115824;23;20056;-79
2023/01/01 05:54:41;;;;;;;75.03;27.33;;;1.80;99.90;;;;;;6142763;23;20031;-79
2023/01/01 05:57:08;;;;;;;74.40;27.52;;;2.50;99.90;;;;;;6142568;23;20033;-79
2023/01/01 05:59:36;;;;;;;79.22;29.88;;;2.50;99.90;;;;;;6144214;23;20044;-79
2023/01/01 06:02:04;;;;;;;80.43;29.60;;;2.50;99.90;;;;;;6144089;23;20024;-79
2023/01/01 06:04:32;;;;;;;79.90;29.42;;;2.40;99.90;;;;;;6142496;23;20013;-80
2023/01/01 06:06:59;;;;;;;77.93;26.85;;;2.40;99.90;;;;;;6117454;23;20023;-80
2023/01/01 06:09:27;;;;;;;74.18;28.05;;;2.40;99.90;;;;;;6145096;23;20097;-80
2023/01/01 06:11:54;;;;;;;83.10;29.77;;;2.30;99.90;;;;;;6119923;23;20353;-80
2023/01/01 06:14:22;;;;;;;85.43;30.48;;;1.90;99.90;;;;;;6141928;23;20025;-80
2023/01/01 06:16:49;;;;;;;75.90;27.75;;;2.70;99.90;;;;;;6144589;23;20021;-80
2023/01/01 06:19:17;;;;;;;85.38;30.73;;;2.20;99.90;;;;;;6121834;23;20036;-80
2023/01/01 06:21:48;;;;;;;85.50;33.00;;;2.00;99.90;;;;;;6119860;23;20030;-80
2023/01/01 06:24:15;;;;;;;85.45;32.33;;;2.40;99.90;;;;;;6144835;23;20442;-79
2023/01/01 06:26:43;;;;;;;115.55;40.90;;;2.40;99.90;;;;;;6117725;23;20023;-79
2023/01/01 06:29:12;;;;;;;126.13;48.00;;;2.30;99.90;;;;;;6120310;23;20018;-79
2023/01/01 06:31:40;;;;;;;162.20;53.88;;;2.40;99.90;;;;;;6119857;23;20017;-79
2023/01/01 06:34:08;;;;;;;185.20;63.30;;;2.40;99.90;;;;;;6119532;23;20025;-79
2023/01/01 06:36:36;;;;;;;130.80;47.85;;;2.40;99.90;;;;;;6119108;23;20021;-79
2023/01/01 06:39:03;;;;;;;123.95;42.13;;;2.20;99.90;;;;;;6117332;23;20021;-79
2023/01/01 06:41:31;;;;;;;107.30;40.08;;;2.70;99.90;;;;;;6114752;23;20480;-79
2023/01/01 06:44:02;;;;;;;96.28;34.15;;;2.30;99.90;;;;;;6116451;23;20077;-79
2023/01/01 06:46:34;;;;;;;104.22;38.15;;;2.40;99.90;;;;;;6119976;23;20048;-79
2023/01/01 06:49:05;;;;;;;99.93;35.67;;;2.10;99.90;;;;;;6130211;23;20025;-79
2023/01/01 06:51:37;;;;;;;93.85;34.58;;;2.40;99.90;;;;;;6128478;23;20032;-79
2023/01/01 06:54:05;;;;;;;133.68;44.40;;;1.70;99.90;;;;;;6124873;23;20021;-79
2023/01/01 06:56:33;;;;;;;127.82;44.97;;;2.20;99.90;;;;;;6114186;23;20025;-79
2023/01/01 06:59:03;;;;;;;167.73;58.70;;;2.50;99.90;;;;;;6116520;23;20021;-79
2023/01/01 07:01:34;;;;;;;167.93;59.17;;;2.40;99.90;;;;;;6112174;23;20018;-79
2023/01/01 07:04:06;;;;;;;162.63;58.85;;;2.60;99.90;;;;;;6136433;23;20878;-79
2023/01/01 07:06:34;;;;;;;165.20;56.47;;;2.40;99.90;;;;;;6110957;23;20029;-79
2023/01/01 07:09:03;;;;;;;162.10;57.58;;;2.00;99.90;;;;;;6114822;23;20029;-81
2023/01/01 07:11:34;;;;;;;164.38;58.90;;;2.40;99.90;;;;;;6135403;23;20044;-81
2023/01/01 07:14:02;;;;;;;154.45;54.88;;;2.50;99.90;;;;;;6136566;23;20028;-81
2023/01/01 07:16:29;;;;;;;170.45;57.50;;;2.50;99.90;;;;;;6134015;23;20519;-81
2023/01/01 07:19:00;;;;;;;156.15;54.78;;;2.60;99.90;;;;;;6111069;23;20025;-81
2023/01/01 07:21:43;;;;;;;143.65;51.40;;;2.60;99.90;;;;;;6160580;23;20014;-81
2023/01/01 07:24:12;;;;;;;136.88;47.65;;;2.60;99.90;;;;;;6134786;23;20022;-81
2023/01/01 07:26:40;;;;;;;150.20;50.05;;;2.60;99.90;;;;;;6135162;23;20017;-81
2023/01/01 07:29:11;;;;;;;155.07;52.88;;;2.70;99.90;;;;;;6140664;23;20020;-80
2023/01/01 07:31:41;;;;;;;143.73;48.22;;;2.30;99.90;;;;;;6114804;23;20014;-80
2023/01/01 07:34:13;;;;;;;155.40;53.72;;;2.70;99.90;;;;;;6116726;23;20017;-80
2023/01/01 07:36:41;;;;;;;165.80;55.17;;;2.50;99.90;;;;;;6142887;23;20029;-80
2023/01/01 07:39:10;;;;;;;195.57;63.70;;;2.80;99.90;;;;;;6143287;23;20327;-80
2023/01/01 07:41:40;;;;;;;170.68;57.63;;;2.80;99.90;;;;;;6145783;23;20014;-80
2023/01/01 07:44:08;;;;;;;161.63;56.55;;;2.90;99.90;;;;;;6120243;23;20023;-80
2023/01/01 07:46:40;;;;;;;160.75;53.97;;;2.90;99.90;;;;;;6127061;23;20086;-80
2023/01/01 07:49:08;;;;;;;141.32;49.40;;;2.50;99.90;;;;;;6116835;23;20025;-80
2023/01/01 07:51:36;;;;;;;141.80;50.15;;;3.00;99.90;;;;;;6140727;23;20018;-80
2023/01/01 07:54:03;;;;;;;125.80;46.63;;;3.00;99.90;;;;;;6116610;23;20078;-79
2023/01/01 07:56:34;;;;;;;138.23;50.45;;;3.10;99.90;;;;;;6135611;23;20025;-79
2023/01/01 07:59:02;;;;;;;125.18;46.78;;;3.20;99.90;;;;;;6107288;23;20476;-79
2023/01/01 08:01:30;;;;;;;122.47;44.92;;;3.20;99.90;;;;;;6106693;23;20045;-79
2023/01/01 08:03:57;;;;;;;126.65;44.28;;;3.20;99.90;;;;;;6107186;23;20025;-80
2023/01/01 08:06:25;;;;;;;112.18;42.65;;;3.40;99.90;;;;;;6133399;23;20024;-80
2023/01/01 08:08:52;;;;;;;110.45;40.50;;;2.90;99.90;;;;;;6132388;23;20017;-80
2023/01/01 08:11:20;;;;;;;97.50;38.53;;;3.50;99.90;;;;;;6105687;23;20022;-80
2023/01/01 08:13:47;;;;;;;98.07;36.38;;;3.60;99.90;;;;;;6133067;23;20048;-80
2023/01/01 08:16:18;;;;;;;94.50;37.05;;;3.80;99.90;;;;;;6134795;23;20045;-80
2023/01/01 08:18:46;;;;;;;95.32;35.33;;;3.80;99.90;;;;;;6109054;23;20104;-81
2023/01/01 08:21:16;;;;;;;97.32;37.22;;;3.90;99.90;;;;;;6160406;23;20052;-81
2023/01/01 08:23:44;;;;;;;81.78;34.20;;;4.00;99.90;;;;;;6109325;23;20018;-81
2023/01/01 08:26:16;;;;;;;88.57;32.03;;;4.10;99.90;;;;;;6134876;23;20021;-81
2023/01/01 08:28:44;;;;;;;90.97;33.60;;;4.30;99.90;;;;;;6137213;23;20017;-81
2023/01/01 08:31:14;;;;;;;89.78;32.10;;;4.40;99.90;;;;;;6111605;23;20021;-81
2023/01/01 08:33:44;;;;;;;87.55;32.17;;;4.50;99.90;;;;;;6109097;23;20049;-81
2023/01/01 08:36:13;;;;;;;91.47;33.28;;;4.30;99.90;;;;;;6108494;23;20079;-81
2023/01/01 08:38:41;;;;;;;94.40;36.65;;;4.70;99.90;;;;;;6132028;23;20027;-81
2023/01/01 08:41:09;;;;;;;99.35;36.50;;;4.90;99.90;;;;;;6102953;23;20080;-80
2023/01/01 08:43:36;;;;;;;110.50;38.53;;;4.90;99.90;;;;;;6129119;23;20014;-80
2023/01/01 08:46:06;;;;;;;107.10;40.83;;;5.00;99.90;;;;;;6131011;23;20025;-80
2023/01/01 08:48:37;;;;;;;124.38;48.08;;;5.10;99.90;;;;;;6157271;23;20009;-80
2023/01/01 08:51:04;;;;;;;140.38;51.47;;;5.40;99.90;;;;;;6106784;23;20037;-80
2023/01/01 08:53:32;;;;;;;116.03;45.30;;;5.60;99.90;;;;;;6131992;23;20013;-80
2023/01/01 08:56:05;;;;;;;110.05;42.38;;;5.50;99.90;;;;;;6107983;23;20021;-80
2023/01/01 08:58:35;;;;;;;143.52;55.08;;;5.50;99.90;;;;;;6131656;23;20025;-79
2023/01/01 09:01:03;;;;;;;147.30;52.45;;;5.70;99.90;;;;;;6107265;23;20025;-80
2023/01/01 09:03:31;;;;;;;142.20;53.47;;;5.80;99.90;;;;;;6131335;23;20017;-80
2023/01/01 09:06:01;;;;;;;121.35;46.58;;;5.60;99.90;;;;;;6132337;23;20010;-79
2023/01/01 09:08:29;;;;;;;114.72;44.00;;;5.70;99.90;;;;;;6131097;23;20040;-79
2023/01/01 09:11:02;;;;;;;109.22;39.72;;;5.50;99.90;;;;;;6106874;23;20027;-78
2023/01/01 09:13:29;;;;;;;;;;;6.80;99.90;;;;;;6107342;23;20499;-78
2023/01/01 09:15:58;;;;;;;91.25;36.88;;;6.00;99.90;;;;;;6131864;23;19921;-78
2023/01/01 09:18:26;;;;;;;93.93;37.20;;;6.20;99.90;;;;;;6107079;23;20045;-78
2023/01/01 09:20:53;;;;;;;75.82;31.45;;;6.30;99.90;;;;;;6130261;23;20029;-78
2023/01/01 09:23:21;;;;;;;85.53;33.65;;;6.50;99.90;;;;;;6131136;23;20020;-78
2023/01/01 09:25:49;;;;;;;81.07;33.10;;;6.70;99.90;;;;;;6131223;23;20017;-78
2023/01/01 09:28:17;;;;;;;90.20;32.55;;;6.80;99.90;;;;;;6130295;23;20028;-78
2023/01/01 09:30:54;;;;;;;75.20;29.58;;;6.60;99.90;;;;;;6132359;23;20020;-78
2023/01/01 09:33:25;;;;;;;73.78;27.20;;;6.90;99.90;;;;;;6157096;23;20017;-80
2023/01/01 09:35:52;;;;;;;69.25;27.45;;;7.10;99.90;;;;;;6154534;23;20021;-79
2023/01/01 09:38:22;;;;;;;79.30;30.30;;;7.20;99.90;;;;;;6106975;23;20445;-78
2023/01/01 09:41:07;;;;;;;84.57;31.38;;;7.20;99.90;;;;;;6106284;23;20027;-78
2023/01/01 09:43:48;;;;;;;86.63;31.73;;;7.60;99.90;;;;;;6107057;23;20022;-78
2023/01/01 09:46:16;;;;;;;86.70;34.90;;;6.90;99.90;;;;;;6130578;23;20032;-78
2023/01/01 09:48:55;;;;;;;93.28;34.47;;;7.60;99.90;;;;;;6130864;23;20406;-78
2023/01/01 09:51:27;;;;;;;92.07;36.65;;;7.60;99.90;;;;;;6131316;23;20014;-78
2023/01/01 09:54:06;;;;;;;105.97;43.88;;;7.70;99.90;;;;;;6106810;23;20021;-78
2023/01/01 09:56:35;;;;;;;114.10;50.65;;;7.80;99.90;;;;;;6128667;23;20404;-78
2023/01/01 09:59:09;;;;;;;91.70;37.13;;;7.90;99.90;;;;;;6128737;23;20049;-78
2023/01/01 10:01:57;;;;;;;91.20;39.10;;;7.80;99.90;;;;;;6106017;23;20072;-78
2023/01/01 10:04:37;;;;;;;90.57;34.42;;;8.00;99.90;;;;;;6105516;23;20437;-77
2023/01/01 10:07:25;;;;;;;90.22;35.92;;;7.40;99.90;;;;;;6128985;23;20013;-78
2023/01/01 10:10:03;;;;;;;101.53;40.47;;;8.00;99.90;;;;;;6130458;23;20024;-78
2023/01/01 10:12:55;;;;;;;97.53;39.38;;;8.00;99.90;;;;;;6131047;23;20029;-78
2023/01/01 10:15:37;;;;;;;117.35;43.88;;;8.10;99.90;;;;;;6106407;23;20068;-78
2023/01/01 10:18:20;;;;;;;105.53;43.72;;;8.20;99.90;;;;;;6108627;23;20025;-78
2023/01/01 10:21:11;;;;;;;109.50;43.10;;;8.30;99.90;;;;;;6106459;23;20045;-78
2023/01/01 10:23:43;;;;;;;113.63;45.42;;;8.30;99.90;;;;;;6130408;23;20018;-78
2023/01/01 10:26:20;;;;;;;111.72;45.83;;;7.30;99.90;;;;;;6130844;23;20350;-78
2023/01/01 10:29:02;;;;;;;125.90;50.65;;;8.60;99.90;;;;;;6129967;23;20056;-78
2023/01/01 10:31:40;;;;;;;128.68;58.92;;;8.80;99.90;;;;;;6130697;23;20509;-78
2023/01/01 10:34:31;;;;;;;142.60;62.95;;;8.70;99.90;;;;;;6104891;23;20029;-78
2023/01/01 10:36:59;;;;;;;132.90;56.90;;;8.80;99.90;;;;;;6105897;23;20400;-78
2023/01/01 10:39:30;;;;;;;124.25;50.40;;;8.90;99.90;;;;;;6105702;23;20021;-78
2023/01/01 10:41:57;;;;;;;106.82;45.42;;;9.80;99.90;;;;;;6105393;23;20045;-78
2023/01/01 10:44:30;;;;;;;131.57;58.05;;;9.00;99.90;;;;;;6126889;23;20088;-78
2023/01/01 10:47:29;;;;;;;129.50;54.03;;;9.00;99.90;;;;;;6128438;23;20028;-78
2023/01/01 10:50:04;;;;;;;146.45;57.88;;;9.20;99.90;;;;;;6151953;23;20052;-78
2023/01/01 10:52:42;;;;;;;154.93;62.85;;;9.30;99.90;;;;;;6102431;23;20401;-78
2023/01/01 10:55:20;;;;;;;179.00;74.80;;;9.40;99.90;;;;;;6128751;23;20519;-78
2023/01/01 10:57:48;;;;;;;140.35;57.28;;;9.40;99.90;;;;;;6127301;23;20017;-78
2023/01/01 11:00:24;;;;;;;146.50;55.50;;;9.50;99.90;;;;;;6127879;23;20037;-78
2023/01/01 11:03:19;;;;;;;136.40;55.47;;;9.70;99.90;;;;;;6102410;23;20100;-78
2023/01/01 11:06:33;;;;;;;141.68;60.83;;;9.70;99.90;;;;;;6122086;23;20080;-77
2023/01/01 11:09:17;;;;;;;135.55;57.60;;;9.60;99.90;;;;;;6112807;23;20021;-78
2023/01/01 11:11:47;;;;;;;106.90;46.30;;;9.70;99.90;;;;;;6125924;23;20104;-78
2023/01/01 11:14:26;;;;;;;114.28;49.28;;;9.80;99.90;;;;;;6103392;23;20021;-78
2023/01/01 11:16:55;;;;;;;120.47;55.08;;;9.80;99.90;;;;;;6128180;23;20126;-78
2023/01/01 11:19:33;;;;;;;120.32;50.90;;;9.80;99.90;;;;;;6127106;23;20045;-78
2023/01/01 11:22:00;;;;;;;114.47;49.38;;;9.90;99.90;;;;;;6126758;23;20401;-78
2023/01/01 11:24:30;;;;;;;133.07;53.72;;;9.90;99.90;;;;;;6103387;23;20021;-78
2023/01/01 11:27:19;;;;;;;126.80;53.58;;;10.00;99.90;;;;;;6127680;23;20049;-78
2023/01/01 11:29:47;;;;;;;130.00;53.10;;;10.20;99.90;;;;;;6124362;23;20022;-78
2023/01/01 11:32:35;;;;;;;126.28;51.33;;;10.40;99.90;;;;;;6120337;23;20132;-77
2023/01/01 11:35:05;;;;;;;116.00;48.40;;;10.40;99.90;;;;;;6145108;23;20029;-79
2023/01/01 11:37:37;;;;;;;100.07;44.72;;;10.50;99.90;;;;;;6102634;23;20132;-79
2023/01/01 11:40:22;;;;;;;116.65;49.83;;;10.70;99.90;;;;;;6101029;23;20028;-79
2023/01/01 11:42:57;;;;;;;44.22;20.33;;;10.90;99.90;;;;;;6125891;23;20022;-79
2023/01/01 11:45:30;;;;;;;33.80;14.80;;;11.10;99.90;;;;;;6101497;23;20053;-79
2023/01/01 11:48:11;;;;;;;41.45;17.23;;;11.40;99.90;;;;;;6127381;23;20021;-79
2023/01/01 11:50:41;;;;;;;30.45;12.95;;;11.60;99.90;;;;;;6127483;23;20021;-79
2023/01/01 11:53:23;;;;;;;27.45;12.07;;;11.60;99.90;;;;;;6123477;23;20108;-79
2023/01/01 11:56:02;;;;;;;28.90;10.73;;;11.80;99.90;;;;;;6152259;23;20017;-78
2023/01/01 11:58:36;;;;;;;36.05;15.88;;;11.90;99.90;;;;;;6098640;23;20457;-79
2023/01/01 12:01:18;;;;;;;25.75;11.60;;;12.10;99.90;;;;;;6122988;23;20353;-80
2023/01/01 12:04:10;;;;;;;32.47;15.43;;;12.20;99.90;;;;;;6126096;23;20018;-79
2023/01/01 12:06:50;;;;;;;24.67;10.40;;;12.10;99.90;;;;;;6099837;23;20101;-79
2023/01/01 12:09:20;;;;;;;33.80;16.13;;;12.00;99.90;;;;;;6122906;23;20430;-79
2023/01/01 12:12:08;;;;;;;50.88;24.50;;;12.00;99.90;;;;;;6102663;23;20041;-80
2023/01/01 12:14:48;;;;;;;31.15;16.45;;;11.90;99.90;;;;;;6101386;23;20081;-80
2023/01/01 12:17:40;;;;;;;38.97;18.10;;;12.00;99.90;;;;;;6122534;23;20373;-80
2023/01/01 12:20:27;;;;;;;30.30;15.40;;;11.90;99.90;;;;;;6122635;23;20025;-80
2023/01/01 12:22:57;;;;;;;287.75;126.43;;;11.80;99.90;;;;;;6097080;23;20435;-80
2023/01/01 12:25:30;;;;;;;71.68;33.97;;;11.50;99.90;;;;;;6121283;23;20453;-80
2023/01/01 12:28:22;;;;;;;38.88;20.05;;;11.60;99.90;;;;;;6125511;23;20462;-80
2023/01/01 12:31:14;;;;;;;42.80;21.43;;;11.70;99.90;;;;;;6101236;23;20022;-78
2023/01/01 12:33:51;;;;;;;35.53;18.50;;;11.80;99.90;;;;;;6101640;23;20029;-79
2023/01/01 12:36:31;;;;;;;25.85;13.93;;;11.80;99.90;;;;;;6098654;23;20316;-79
2023/01/01 12:39:45;;;;;;;24.30;11.38;;;11.90;99.90;;;;;;6123930;23;20021;-79
2023/01/01 12:42:26;;;;;;;26.90;13.05;;;11.90;99.90;;;;;;6123136;23;20049;-79
2023/01/01 12:45:17;;;;;;;47.50;21.50;;;11.90;99.90;;;;;;6098521;23;20018;-79
2023/01/01 12:48:14;;;;;;;35.20;16.48;;;11.80;99.90;;;;;;6071601;23;20066;-79
2023/01/01 12:50:58;;;;;;;40.10;20.20;;;11.80;99.90;;;;;;6070788;23;20045;-79
2023/01/01 12:54:18;;;;;;;28.27;15.60;;;11.80;99.90;;;;;;6071981;23;20473;-79
2023/01/01 12:57:00;;;;;;;28.75;19.48;;;11.80;99.90;;;;;;6096955;23;20022;-80
2023/01/01 12:59:38;;;;;;;17.98;9.80;;;11.80;99.90;;;;;;6089500;23;20583;-79
2023/01/01 13:02:22;;;;;;;18.17;10.15;;;11.80;99.90;;;;;;6069916;23;20029;-79
2023/01/01 13:04:59;;;;;;;27.63;14.50;;;11.80;99.90;;;;;;6119225;23;20021;-79
2023/01/01 13:07:42;;;;;;;33.58;15.32;;;11.70;99.90;;;;;;6071188;23;20092;-79
2023/01/01 13:10:22;;;;;;;24.02;12.98;;;11.70;99.90;;;;;;6095855;23;20026;-80
2023/01/01 13:12:51;;;;;;;33.65;19.35;;;11.70;99.90;;;;;;6094271;23;20097;-80
2023/01/01 13:15:36;;;;;;;33.85;18.77;;;11.60;99.90;;;;;;6060674;23;20024;-79
2023/01/01 13:18:31;;;;;;;36.88;19.77;;;11.60;99.90;;;;;;6076515;23;20028;-80
2023/01/01 13:21:19;;;;;;;35.10;18.15;;;11.60;99.90;;;;;;6098152;23;20361;-79
2023/01/01 13:23:48;;;;;;;41.42;24.92;;;12.30;99.90;;;;;;6071574;23;20055;-79
2023/01/01 13:26:21;;;;;;;38.83;23.35;;;11.30;99.90;;;;;;6093509;23;20450;-79
2023/01/01 13:29:00;;;;;;;39.95;21.80;;;11.10;99.90;;;;;;6073157;23;20517;-79
2023/01/01 13:31:40;;;;;;;41.88;22.20;;;11.00;99.90;;;;;;6096556;23;20022;-79
2023/01/01 13:34:30;;;;;;;42.63;23.60;;;10.90;99.90;;;;;;6096071;23;20022;-79
2023/01/01 13:37:09;;;;;;;37.58;20.67;;;10.70;99.90;;;;;;6069119;23;20030;-79
2023/01/01 13:40:02;;;;;;;47.75;24.48;;;10.60;99.90;;;;;;6094615;23;20042;-79
2023/01/01 13:42:54;;;;;;;50.33;25.80;;;10.60;99.90;;;;;;6095323;23;20089;-79
2023/01/01 13:45:41;;;;;;;43.33;25.10;;;10.50;99.90;;;;;;6074197;23;20025;-79
2023/01/01 13:49:04;;;;;;;53.30;26.98;;;10.30;99.90;;;;;;6127397;23;20073;-79
2023/01/01 13:51:54;;;;;;;40.78;24.08;;;10.20;99.90;;;;;;6149613;23;20025;-79
2023/01/01 13:54:54;;;;;;;38.17;22.00;;;10.10;99.90;;;;;;6151542;23;20092;-79
2023/01/01 13:57:40;;;;;;;38.35;22.55;;;10.00;99.90;;;;;;6151264;23;20033;-79
2023/01/01 14:00:26;;;;;;;40.65;23.67;;;10.00;99.90;;;;;;6125688;23;20030;-79
2023/01/01 14:03:01;;;;;;;42.70;23.42;;;9.80;99.90;;;;;;6148443;23;20025;-79
2023/01/01 14:05:53;;;;;;;40.58;22.70;;;9.70;99.90;;;;;;6146897;23;20018;-79
2023/01/01 14:08:34;;;;;;;36.22;19.08;;;9.60;99.90;;;;;;6148623;23;20028;-79
2023/01/01 14:11:19;;;;;;;35.03;20.23;;;9.60;99.90;;;;;;6149052;23;20028;-79
2023/01/01 14:13:47;;;;;;;32.20;19.25;;;9.40;99.90;;;;;;6123997;23;20357;-79
2023/01/01 14:16:15;;;;;;;32.83;18.58;;;9.40;99.90;;;;;;6149941;23;20018;-79
2023/01/01 14:18:59;;;;;;;35.38;20.42;;;9.40;99.90;;;;;;6148749;23;20031;-79
2023/01/01 14:21:30;;;;;;;42.10;22.45;;;9.30;99.90;;;;;;6149376;23;20052;-80
2023/01/01 14:24:01;;;;;;;35.67;20.27;;;9.30;99.90;;;;;;6149927;23;20500;-79
2023/01/01 14:26:30;;;;;;;35.00;19.45;;;9.20;99.90;;;;;;6147060;23;20021;-79
2023/01/01 14:29:06;;;;;;;38.53;20.63;;;9.10;99.90;;;;;;6147816;23;20026;-79
2023/01/01 14:31:42;;;;;;;34.53;19.67;;;9.10;99.90;;;;;;6148692;23;20136;-79
2023/01/01 14:34:20;;;;;;;35.30;19.65;;;9.10;99.90;;;;;;6121232;23;20029;-80
2023/01/01 14:36:52;;;;;;;43.35;21.30;;;9.00;99.90;;;;;;6145724;23;20025;-79
2023/01/01 14:39:30;;;;;;;38.25;20.05;;;9.00;99.90;;;;;;6147022;23;20049;-78
2023/01/01 14:42:27;;;;;;;41.42;21.25;;;9.00;99.90;;;;;;6151396;23;20028;-79
2023/01/01 14:44:55;;;;;;;31.35;18.48;;;9.00;99.90;;;;;;6152311;23;20022;-79
2023/01/01 14:47:26;;;;;;;37.67;20.92;;;8.90;99.90;;;;;;6104272;23;20018;-79
2023/01/01 14:50:11;;;;;;;35.55;20.40;;;8.90;99.90;;;;;;6128546;23;20017;-79
2023/01/01 14:52:39;;;;;;;38.60;19.65;;;8.90;99.90;;;;;;6147350;23;20072;-80
2023/01/01 14:55:07;;;;;;;36.50;21.05;;;8.80;99.90;;;;;;6147546;23;20029;-80
2023/01/01 14:57:36;;;;;;;39.55;20.77;;;8.80;99.90;;;;;;6147399;23;20030;-79
2023/01/01 15:00:20;;;;;;;42.70;22.33;;;8.80;99.90;;;;;;6148929;23;20052;-79
2023/01/01 15:02:47;;;;;;;40.53;20.55;;;8.70;99.90;;;;;;6125502;23;20128;-79
2023/01/01 15:05:35;;;;;;;38.67;19.88;;;8.70;99.90;;;;;;6150445;23;20021;-79
2023/01/01 15:08:05;;;;;;;36.28;20.08;;;8.70;99.90;;;;;;6150995;23;20032;-78
2023/01/01 15:10:37;;;;;;;42.65;21.75;;;8.70;99.90;;;;;;6152252;23;20018;-79
2023/01/01 15:13:06;;;;;;;52.20;27.57;;;8.60;99.90;;;;;;6124929;23;20025;-79
2023/01/01 15:15:39;;;;;;;44.53;23.77;;;8.60;99.90;;;;;;6153637;23;20577;-79
2023/01/01 15:18:39;;;;;;;40.22;23.02;;;8.60;99.90;;;;;;6127972;23;20021;-78
2023/01/01 15:21:29;;;;;;;56.70;29.95;;;8.60;99.90;;;;;;6156250;23;20031;-79
2023/01/01 15:24:22;;;;;;;52.97;26.73;;;8.50;99.90;;;;;;6124388;23;20033;-80
2023/01/01 15:26:58;;;;;;;50.63;25.17;;;8.50;99.90;;;;;;6156820;23;20712;-79
2023/01/01 15:29:38;;;;;;;48.05;26.65;;;8.50;99.90;;;;;;6158095;23;20508;-80
2023/01/01 15:32:14;;;;;;;51.78;26.80;;;8.50;99.90;;;;;;6157850;23;20441;-79
2023/01/01 15:34:49;;;;;;;62.42;31.10;;;8.50;99.90;;;;;;6156300;23;20111;-79
2023/01/01 15:37:22;;;;;;;50.83;25.90;;;8.50;99.90;;;;;;6130853;23;20025;-79
2023/01/01 15:39:51;;;;;;;51.45;26.67;;;8.50;99.90;;;;;;6128616;23;20029;-79
2023/01/01 15:42:29;;;;;;;48.33;25.05;;;8.40;99.90;;;;;;6156346;23;20025;-79
2023/01/01 15:45:06;;;;;;;45.47;23.80;;;8.40;99.90;;;;;;6131198;23;20404;-79
2023/01/01 15:47:37;;;;;;;47.67;24.83;;;8.40;99.90;;;;;;6153606;23;20080;-79
2023/01/01 15:50:34;;;;;;;61.58;28.25;;;8.40;99.90;;;;;;6127798;23;20032;-79
2023/01/01 15:53:08;;;;;;;75.32;38.55;;;8.40;99.90;;;;;;6127338;23;20353;-80
2023/01/01 15:55:43;;;;;;;52.72;25.52;;;8.40;99.90;;;;;;6156491;23;20476;-79
2023/01/01 15:58:22;;;;;;;39.70;21.48;;;8.30;99.90;;;;;;6157258;23;20026;-79
2023/01/01 16:01:02;;;;;;;43.88;21.63;;;8.30;99.90;;;;;;6156392;23;20581;-80
2023/01/01 16:03:32;;;;;;;38.28;20.13;;;8.30;99.90;;;;;;6133256;23;20029;-80
2023/01/01 16:06:00;;;;;;;35.95;21.50;;;8.30;99.90;;;;;;6156011;23;20029;-80
2023/01/01 16:08:27;;;;;;;41.22;20.40;;;8.30;99.90;;;;;;6129816;23;20032;-80
2023/01/01 16:10:54;;;;;;;42.15;20.77;;;8.30;99.90;;;;;;6130406;23;20025;-80
2023/01/01 16:13:22;;;;;;;45.92;23.40;;;8.30;99.90;;;;;;6133222;23;20030;-80
2023/01/01 16:15:54;;;;;;;45.03;23.58;;;8.30;99.90;;;;;;6155651;23;20048;-80
2023/01/01 16:18:29;;;;;;;58.35;27.88;;;8.30;99.90;;;;;;6131565;23;20017;-80
2023/01/01 16:20:57;;;;;;;67.80;34.95;;;8.30;99.90;;;;;;6157593;23;20033;-81
2023/01/01 16:23:24;;;;;;;49.58;24.88;;;8.30;99.90;;;;;;6132514;23;20024;-80
2023/01/01 16:25:51;;;;;;;49.05;24.83;;;8.30;99.90;;;;;;6155391;23;20632;-79
2023/01/01 16:28:19;;;;;;;51.90;27.30;;;8.20;99.90;;;;;;6133556;23;20041;-80
2023/01/01 16:30:46;;;;;;;54.55;26.08;;;8.20;99.90;;;;;;6133336;23;20064;-80
2023/01/01 16:33:16;;;;;;;55.13;26.95;;;8.20;99.90;;;;;;6130303;23;20022;-80
2023/01/01 16:35:44;;;;;;;48.40;24.77;;;8.20;99.90;;;;;;6152523;23;20101;-80
2023/01/01 16:38:11;;;;;;;48.33;24.05;;;8.20;99.90;;;;;;6128447;23;20070;-80
2023/01/01 16:40:38;;;;;;;51.90;27.38;;;8.20;99.90;;;;;;6126940;23;20033;-78
2023/01/01 16:43:14;;;;;;;55.97;28.63;;;8.20;99.90;;;;;;6125376;23;20036;-78
2023/01/01 16:45:42;;;;;;;54.20;29.27;;;8.20;99.90;;;;;;6127308;23;20018;-80
2023/01/01 16:48:10;;;;;;;61.85;28.13;;;8.20;99.90;;;;;;6128572;23;20018;-79
2023/01/01 16:50:37;;;;;;;58.78;28.58;;;8.20;99.90;;;;;;6126418;23;20489;-79
2023/01/01 16:53:04;;;;;;;58.58;29.60;;;8.20;99.90;;;;;;6127137;23;20021;-80